sensor_id;sensor_type;location;lat;lon;timestamp;P1;durP1;ratioP1;P2;durP2;ratioP2
31978;SDS011;18502;43.574;1.276;2022-12-29T00:01:32;24.23;;;13.02;;
31978;SDS011;18502;43.574;1.276;2022-12-29T00:03:59;30.27;;;15.02;;
31978;SDS011;18502;43.574;1.276;2022-12-29T00:06:24;24.25;;;15.40;;
31978;SDS011;18502;43.574;1.276;2022-12-29T00:08:51;28.80;;;15.40;;
31978;SDS011;18502;43.574;1.276;2022-12-29T00:11:17;30.17;;;15.40;;
31978;SDS011;18502;43.574;1.276;2022-12-29T00:13:45;28.25;;;15.50;;
31978;SDS011;18502;43.574;1.276;2022-12-29T00:16:29;27.90;;;16.27;;
31978;SDS011;18502;43.574;1.276;2022-12-29T00:18:56;26.27;;;14.57;;
31978;SDS011;18502;43.574;1.276;2022-12-29T00:21:22;29.25;;;15.48;;
31978;SDS011;18502;43.574;1.276;2022-12-29T00:24:14;24.95;;;14.27;;
31978;SDS011;18502;43.574;1.276;2022-12-29T00:27:25;25.05;;;15.27;;
31978;SDS011;18502;43.574;1.276;2022-12-29T00:30:01;29.65;;;14.75;;
31978;SDS011;18502;43.574;1.276;2022-12-29T00:32:45;27.98;;;15.63;;
31978;SDS011;18502;43.574;1.276;2022-12-29T00:35:30;26.17;;;14.63;;
31978;SDS011;18502;43.574;1.276;2022-12-29T00:38:01;26.35;;;13.43;;
31978;SDS011;18502;43.574;1.276;2022-12-29T00:40:48;25.08;;;13.68;;
31978;SDS011;18502;43.574;1.276;2022-12-29T00:43:33;20.15;;;13.30;;
31978;SDS011;18502;43.574;1.276;2022-12-29T00:46:17;24.63;;;12.75;;
31978;SDS011;18502;43.574;1.276;2022-12-29T00:48:43;21.40;;;13.25;;
31978;SDS011;18502;43.574;1.276;2022-12-29T00:51:27;22.35;;;12.52;;
31978;SDS011;18502;43.574;1.276;2022-12-29T00:53:53;21.38;;;12.50;;
31978;SDS011;18502;43.574;1.276;2022-12-29T00:56:19;19.48;;;11.98;;
31978;SDS011;18502;43.574;1.276;2022-12-29T00:58:44;22.92;;;12.93;;
31978;SDS011;18502;43.574;1.276;2022-12-29T01:01:10;24.65;;;14.15;;
31978;SDS011;18502;43.574;1.276;2022-12-29T01:03:36;24.85;;;14.23;;
31978;SDS011;18502;43.574;1.276;2022-12-29T01:06:03;22.63;;;12.45;;
31978;SDS011;18502;43.574;1.276;2022-12-29T01:08:30;19.23;;;12.25;;
31978;SDS011;18502;43.574;1.276;2022-12-29T01:11:03;22.02;;;12.27;;
31978;SDS011;18502;43.574;1.276;2022-12-29T01:13:31;25.77;;;12.02;;
31978;SDS011;18502;43.574;1.276;2022-12-29T01:15:56;21.30;;;11.30;;
31978;SDS011;18502;43.574;1.276;2022-12-29T01:18:23;19.80;;;11.77;;
31978;SDS011;18502;43.574;1.276;2022-12-29T01:20:50;21.92;;;12.85;;
31978;SDS011;18502;43.574;1.276;2022-12-29T01:23:16;20.05;;;11.95;;
31978;SDS011;18502;43.574;1.276;2022-12-29T01:25:42;20.63;;;11.95;;
31978;SDS011;18502;43.574;1.276;2022-12-29T01:28:08;19.50;;;11.40;;
31978;SDS011;18502;43.574;1.276;2022-12-29T01:30:34;20.00;;;10.50;;
31978;SDS011;18502;43.574;1.276;2022-12-29T01:33:00;19.80;;;10.07;;
31978;SDS011;18502;43.574;1.276;2022-12-29T01:35:26;18.35;;;11.57;;
31978;SDS011;18502;43.574;1.276;2022-12-29T01:37:52;15.48;;;10.18;;
31978;SDS011;18502;43.574;1.276;2022-12-29T01:40:18;18.63;;;10.75;;
31978;SDS011;18502;43.574;1.276;2022-12-29T01:42:44;20.70;;;12.23;;
31978;SDS011;18502;43.574;1.276;2022-12-29T01:47:47;19.45;;;12.60;;
31978;SDS011;18502;43.574;1.276;2022-12-29T01:50:41;18.90;;;11.43;;
31978;SDS011;18502;43.574;1.276;2022-12-29T01:53:20;21.95;;;11.35;;
31978;SDS011;18502;43.574;1.276;2022-12-29T01:55:54;22.33;;;11.65;;
31978;SDS011;18502;43.574;1.276;2022-12-29T01:58:27;18.83;;;10.98;;
31978;SDS011;18502;43.574;1.276;2022-12-29T02:00:57;18.10;;;11.65;;
31978;SDS011;18502;43.574;1.276;2022-12-29T02:03:24;16.70;;;11.18;;
31978;SDS011;18502;43.574;1.276;2022-12-29T02:08:24;18.13;;;11.55;;
31978;SDS011;18502;43.574;1.276;2022-12-29T02:10:51;17.20;;;11.35;;
31978;SDS011;18502;43.574;1.276;2022-12-29T02:13:18;17.02;;;11.70;;
31978;SDS011;18502;43.574;1.276;2022-12-29T02:22:01;17.65;;;10.77;;
31978;SDS011;18502;43.574;1.276;2022-12-29T02:41:19;19.38;;;11.45;;
31978;SDS011;18502;43.574;1.276;2022-12-29T02:46:43;19.58;;;11.13;;
31978;SDS011;18502;43.574;1.276;2022-12-29T02:51:51;16.08;;;11.30;;
31978;SDS011;18502;43.574;1.276;2022-12-29T02:54:25;19.50;;;10.57;;
31978;SDS011;18502;43.574;1.276;2022-12-29T02:59:41;20.40;;;11.57;;
31978;SDS011;18502;43.574;1.276;2022-12-29T03:19:07;23.02;;;11.10;;
31978;SDS011;18502;43.574;1.276;2022-12-29T03:21:44;18.77;;;11.13;;
31978;SDS011;18502;43.574;1.276;2022-12-29T03:24:32;16.52;;;11.18;;
31978;SDS011;18502;43.574;1.276;2022-12-29T03:27:04;23.13;;;10.75;;
31978;SDS011;18502;43.574;1.276;2022-12-29T03:29:33;23.98;;;13.00;;
31978;SDS011;18502;43.574;1.276;2022-12-29T03:32:11;22.83;;;11.00;;
31978;SDS011;18502;43.574;1.276;2022-12-29T03:34:39;18.67;;;10.32;;
31978;SDS011;18502;43.574;1.276;2022-12-29T03:37:12;20.35;;;10.43;;
31978;SDS011;18502;43.574;1.276;2022-12-29T03:39:41;18.05;;;10.00;;
31978;SDS011;18502;43.574;1.276;2022-12-29T03:42:14;17.63;;;10.77;;
31978;SDS011;18502;43.574;1.276;2022-12-29T03:44:44;19.17;;;11.63;;
31978;SDS011;18502;43.574;1.276;2022-12-29T03:47:11;23.55;;;12.63;;
31978;SDS011;18502;43.574;1.276;2022-12-29T03:49:38;19.00;;;12.13;;
31978;SDS011;18502;43.574;1.276;2022-12-29T03:52:04;19.38;;;11.50;;
31978;SDS011;18502;43.574;1.276;2022-12-29T03:54:30;18.35;;;11.50;;
31978;SDS011;18502;43.574;1.276;2022-12-29T03:56:57;21.30;;;11.15;;
31978;SDS011;18502;43.574;1.276;2022-12-29T03:59:23;21.33;;;13.00;;
31978;SDS011;18502;43.574;1.276;2022-12-29T04:01:48;22.13;;;11.90;;
31978;SDS011;18502;43.574;1.276;2022-12-29T04:04:14;25.25;;;12.95;;
31978;SDS011;18502;43.574;1.276;2022-12-29T04:06:40;18.73;;;11.50;;
31978;SDS011;18502;43.574;1.276;2022-12-29T04:09:06;23.67;;;12.00;;
31978;SDS011;18502;43.574;1.276;2022-12-29T04:11:32;22.38;;;12.30;;
31978;SDS011;18502;43.574;1.276;2022-12-29T04:13:58;21.10;;;12.40;;
31978;SDS011;18502;43.574;1.276;2022-12-29T04:16:24;21.17;;;12.40;;
31978;SDS011;18502;43.574;1.276;2022-12-29T04:18:49;26.65;;;12.48;;
31978;SDS011;18502;43.574;1.276;2022-12-29T04:21:15;28.48;;;13.30;;
31978;SDS011;18502;43.574;1.276;2022-12-29T04:23:41;21.38;;;11.18;;
31978;SDS011;18502;43.574;1.276;2022-12-29T04:26:06;20.58;;;10.98;;
31978;SDS011;18502;43.574;1.276;2022-12-29T04:28:33;22.17;;;12.05;;
31978;SDS011;18502;43.574;1.276;2022-12-29T04:31:00;23.77;;;13.20;;
31978;SDS011;18502;43.574;1.276;2022-12-29T04:33:26;25.30;;;12.88;;
31978;SDS011;18502;43.574;1.276;2022-12-29T04:35:51;29.40;;;12.60;;
31978;SDS011;18502;43.574;1.276;2022-12-29T04:38:20;27.02;;;13.13;;
31978;SDS011;18502;43.574;1.276;2022-12-29T04:40:47;20.80;;;13.15;;
31978;SDS011;18502;43.574;1.276;2022-12-29T04:43:14;26.08;;;13.27;;
31978;SDS011;18502;43.574;1.276;2022-12-29T04:45:43;23.90;;;13.23;;
31978;SDS011;18502;43.574;1.276;2022-12-29T04:48:10;24.25;;;13.88;;
31978;SDS011;18502;43.574;1.276;2022-12-29T04:50:36;25.20;;;12.50;;
31978;SDS011;18502;43.574;1.276;2022-12-29T04:53:01;28.08;;;13.85;;
31978;SDS011;18502;43.574;1.276;2022-12-29T04:55:27;27.05;;;13.40;;
31978;SDS011;18502;43.574;1.276;2022-12-29T04:57:53;31.85;;;14.27;;
31978;SDS011;18502;43.574;1.276;2022-12-29T05:00:19;22.67;;;13.98;;
31978;SDS011;18502;43.574;1.276;2022-12-29T05:02:45;31.98;;;15.00;;
31978;SDS011;18502;43.574;1.276;2022-12-29T05:05:10;32.08;;;15.30;;
31978;SDS011;18502;43.574;1.276;2022-12-29T05:07:36;24.67;;;13.13;;
31978;SDS011;18502;43.574;1.276;2022-12-29T05:10:02;23.52;;;13.30;;
31978;SDS011;18502;43.574;1.276;2022-12-29T05:12:29;20.20;;;11.90;;
31978;SDS011;18502;43.574;1.276;2022-12-29T05:14:55;32.47;;;14.40;;
31978;SDS011;18502;43.574;1.276;2022-12-29T05:17:21;27.70;;;14.35;;
31978;SDS011;18502;43.574;1.276;2022-12-29T05:19:47;27.48;;;13.50;;
31978;SDS011;18502;43.574;1.276;2022-12-29T05:22:12;25.00;;;13.27;;
31978;SDS011;18502;43.574;1.276;2022-12-29T05:24:39;25.73;;;13.23;;
31978;SDS011;18502;43.574;1.276;2022-12-29T05:27:05;24.30;;;13.52;;
31978;SDS011;18502;43.574;1.276;2022-12-29T05:29:31;22.60;;;13.98;;
31978;SDS011;18502;43.574;1.276;2022-12-29T05:31:56;26.05;;;12.38;;
31978;SDS011;18502;43.574;1.276;2022-12-29T05:34:22;26.38;;;13.80;;
31978;SDS011;18502;43.574;1.276;2022-12-29T05:36:48;23.67;;;13.82;;
31978;SDS011;18502;43.574;1.276;2022-12-29T05:39:14;24.02;;;12.80;;
31978;SDS011;18502;43.574;1.276;2022-12-29T05:41:39;24.52;;;13.50;;
31978;SDS011;18502;43.574;1.276;2022-12-29T05:44:05;29.52;;;14.25;;
31978;SDS011;18502;43.574;1.276;2022-12-29T05:46:31;26.83;;;15.77;;
31978;SDS011;18502;43.574;1.276;2022-12-29T05:48:57;27.75;;;14.93;;
31978;SDS011;18502;43.574;1.276;2022-12-29T05:51:23;25.90;;;14.32;;
31978;SDS011;18502;43.574;1.276;2022-12-29T05:53:48;27.60;;;14.60;;
31978;SDS011;18502;43.574;1.276;2022-12-29T05:56:15;32.35;;;13.95;;
31978;SDS011;18502;43.574;1.276;2022-12-29T05:58:41;29.35;;;14.52;;
31978;SDS011;18502;43.574;1.276;2022-12-29T06:01:06;23.92;;;14.75;;
31978;SDS011;18502;43.574;1.276;2022-12-29T06:03:32;25.90;;;13.57;;
31978;SDS011;18502;43.574;1.276;2022-12-29T06:05:58;31.90;;;13.95;;
31978;SDS011;18502;43.574;1.276;2022-12-29T06:08:23;27.60;;;14.38;;
31978;SDS011;18502;43.574;1.276;2022-12-29T06:10:49;33.63;;;15.68;;
31978;SDS011;18502;43.574;1.276;2022-12-29T06:13:15;30.17;;;15.70;;
31978;SDS011;18502;43.574;1.276;2022-12-29T06:15:41;31.85;;;15.50;;
31978;SDS011;18502;43.574;1.276;2022-12-29T06:18:07;36.58;;;18.38;;
31978;SDS011;18502;43.574;1.276;2022-12-29T06:20:33;30.02;;;16.52;;
31978;SDS011;18502;43.574;1.276;2022-12-29T06:22:58;33.47;;;18.67;;
31978;SDS011;18502;43.574;1.276;2022-12-29T06:25:24;32.03;;;17.85;;
31978;SDS011;18502;43.574;1.276;2022-12-29T06:27:50;28.90;;;16.75;;
31978;SDS011;18502;43.574;1.276;2022-12-29T06:30:15;29.48;;;16.73;;
31978;SDS011;18502;43.574;1.276;2022-12-29T06:32:42;31.50;;;17.65;;
31978;SDS011;18502;43.574;1.276;2022-12-29T06:35:08;35.58;;;15.82;;
31978;SDS011;18502;43.574;1.276;2022-12-29T06:37:34;29.98;;;17.42;;
31978;SDS011;18502;43.574;1.276;2022-12-29T06:39:59;34.10;;;17.58;;
31978;SDS011;18502;43.574;1.276;2022-12-29T06:42:25;45.80;;;21.13;;
31978;SDS011;18502;43.574;1.276;2022-12-29T06:44:51;36.00;;;18.17;;
31978;SDS011;18502;43.574;1.276;2022-12-29T06:47:17;37.33;;;18.08;;
31978;SDS011;18502;43.574;1.276;2022-12-29T06:49:43;33.90;;;17.42;;
31978;SDS011;18502;43.574;1.276;2022-12-29T06:52:09;36.70;;;16.08;;
31978;SDS011;18502;43.574;1.276;2022-12-29T06:54:35;30.40;;;16.42;;
31978;SDS011;18502;43.574;1.276;2022-12-29T06:57:00;29.23;;;16.08;;
31978;SDS011;18502;43.574;1.276;2022-12-29T06:59:26;33.88;;;16.27;;
31978;SDS011;18502;43.574;1.276;2022-12-29T07:01:52;31.55;;;17.05;;
31978;SDS011;18502;43.574;1.276;2022-12-29T07:04:18;33.03;;;17.08;;
31978;SDS011;18502;43.574;1.276;2022-12-29T07:06:43;31.23;;;16.50;;
31978;SDS011;18502;43.574;1.276;2022-12-29T07:09:09;33.58;;;17.73;;
31978;SDS011;18502;43.574;1.276;2022-12-29T07:11:35;32.50;;;17.75;;
31978;SDS011;18502;43.574;1.276;2022-12-29T07:14:01;33.55;;;17.88;;
31978;SDS011;18502;43.574;1.276;2022-12-29T07:16:27;38.40;;;17.55;;
31978;SDS011;18502;43.574;1.276;2022-12-29T07:18:54;35.20;;;18.55;;
31978;SDS011;18502;43.574;1.276;2022-12-29T07:21:20;38.15;;;19.35;;
31978;SDS011;18502;43.574;1.276;2022-12-29T07:23:46;40.70;;;19.42;;
31978;SDS011;18502;43.574;1.276;2022-12-29T07:26:13;40.85;;;20.63;;
31978;SDS011;18502;43.574;1.276;2022-12-29T07:28:39;40.53;;;19.83;;
31978;SDS011;18502;43.574;1.276;2022-12-29T07:31:08;44.00;;;20.08;;
31978;SDS011;18502;43.574;1.276;2022-12-29T07:33:39;42.20;;;20.02;;
31978;SDS011;18502;43.574;1.276;2022-12-29T07:36:04;39.78;;;19.70;;
31978;SDS011;18502;43.574;1.276;2022-12-29T07:38:30;34.53;;;18.63;;
31978;SDS011;18502;43.574;1.276;2022-12-29T07:40:57;36.03;;;19.65;;
31978;SDS011;18502;43.574;1.276;2022-12-29T07:43:23;35.35;;;17.83;;
31978;SDS011;18502;43.574;1.276;2022-12-29T07:45:49;32.15;;;16.38;;
31978;SDS011;18502;43.574;1.276;2022-12-29T07:48:14;31.50;;;17.48;;
31978;SDS011;18502;43.574;1.276;2022-12-29T07:50:40;31.33;;;16.73;;
31978;SDS011;18502;43.574;1.276;2022-12-29T07:53:06;34.10;;;16.27;;
31978;SDS011;18502;43.574;1.276;2022-12-29T07:55:31;28.83;;;16.60;;
31978;SDS011;18502;43.574;1.276;2022-12-29T07:57:57;33.20;;;16.48;;
31978;SDS011;18502;43.574;1.276;2022-12-29T08:00:23;27.65;;;16.17;;
31978;SDS011;18502;43.574;1.276;2022-12-29T08:02:48;25.90;;;14.90;;
31978;SDS011;18502;43.574;1.276;2022-12-29T08:05:14;26.98;;;14.38;;
31978;SDS011;18502;43.574;1.276;2022-12-29T08:07:42;30.77;;;16.30;;
31978;SDS011;18502;43.574;1.276;2022-12-29T08:10:09;30.17;;;15.90;;
31978;SDS011;18502;43.574;1.276;2022-12-29T08:12:37;24.88;;;14.90;;
31978;SDS011;18502;43.574;1.276;2022-12-29T08:15:03;24.92;;;13.02;;
31978;SDS011;18502;43.574;1.276;2022-12-29T08:17:30;24.70;;;13.70;;
31978;SDS011;18502;43.574;1.276;2022-12-29T08:19:55;28.10;;;13.43;;
31978;SDS011;18502;43.574;1.276;2022-12-29T08:22:21;23.10;;;11.88;;
31978;SDS011;18502;43.574;1.276;2022-12-29T08:24:47;24.08;;;11.20;;
31978;SDS011;18502;43.574;1.276;2022-12-29T08:27:13;22.70;;;10.30;;
31978;SDS011;18502;43.574;1.276;2022-12-29T08:29:39;21.70;;;9.80;;
31978;SDS011;18502;43.574;1.276;2022-12-29T08:32:04;25.05;;;12.25;;
31978;SDS011;18502;43.574;1.276;2022-12-29T08:34:31;42.50;;;21.40;;
31978;SDS011;18502;43.574;1.276;2022-12-29T08:36:57;24.25;;;13.45;;
31978;SDS011;18502;43.574;1.276;2022-12-29T08:39:23;18.58;;;12.18;;
31978;SDS011;18502;43.574;1.276;2022-12-29T08:41:48;25.23;;;12.30;;
31978;SDS011;18502;43.574;1.276;2022-12-29T08:44:14;22.48;;;11.70;;
31978;SDS011;18502;43.574;1.276;2022-12-29T08:46:40;26.17;;;12.95;;
31978;SDS011;18502;43.574;1.276;2022-12-29T08:49:06;23.52;;;12.25;;
31978;SDS011;18502;43.574;1.276;2022-12-29T08:51:32;21.55;;;11.48;;
31978;SDS011;18502;43.574;1.276;2022-12-29T08:53:58;27.10;;;11.68;;
31978;SDS011;18502;43.574;1.276;2022-12-29T08:56:24;20.30;;;10.75;;
31978;SDS011;18502;43.574;1.276;2022-12-29T08:58:51;23.05;;;14.50;;
31978;SDS011;18502;43.574;1.276;2022-12-29T09:01:17;19.65;;;10.50;;
31978;SDS011;18502;43.574;1.276;2022-12-29T09:03:44;26.80;;;12.43;;
31978;SDS011;18502;43.574;1.276;2022-12-29T09:06:10;15.77;;;9.52;;
31978;SDS011;18502;43.574;1.276;2022-12-29T09:08:36;18.88;;;10.70;;
31978;SDS011;18502;43.574;1.276;2022-12-29T09:11:08;18.95;;;10.15;;
31978;SDS011;18502;43.574;1.276;2022-12-29T09:13:36;21.65;;;10.82;;
31978;SDS011;18502;43.574;1.276;2022-12-29T09:16:02;20.40;;;10.90;;
31978;SDS011;18502;43.574;1.276;2022-12-29T09:18:28;21.75;;;11.18;;
31978;SDS011;18502;43.574;1.276;2022-12-29T09:20:58;22.02;;;10.38;;
31978;SDS011;18502;43.574;1.276;2022-12-29T09:23:25;19.77;;;9.45;;
31978;SDS011;18502;43.574;1.276;2022-12-29T09:25:51;19.17;;;10.50;;
31978;SDS011;18502;43.574;1.276;2022-12-29T09:28:18;23.00;;;11.88;;
31978;SDS011;18502;43.574;1.276;2022-12-29T09:30:44;19.40;;;12.00;;
31978;SDS011;18502;43.574;1.276;2022-12-29T09:33:10;20.40;;;10.85;;
31978;SDS011;18502;43.574;1.276;2022-12-29T09:35:35;19.75;;;11.55;;
31978;SDS011;18502;43.574;1.276;2022-12-29T09:38:01;20.70;;;11.93;;
31978;SDS011;18502;43.574;1.276;2022-12-29T09:40:28;22.60;;;11.52;;
31978;SDS011;18502;43.574;1.276;2022-12-29T09:48:34;22.00;;;11.43;;
31978;SDS011;18502;43.574;1.276;2022-12-29T09:51:08;23.65;;;10.60;;
31978;SDS011;18502;43.574;1.276;2022-12-29T09:53:39;25.52;;;12.35;;
31978;SDS011;18502;43.574;1.276;2022-12-29T09:56:19;27.25;;;12.13;;
31978;SDS011;18502;43.574;1.276;2022-12-29T10:04:17;26.83;;;11.20;;
31978;SDS011;18502;43.574;1.276;2022-12-29T10:25:14;18.40;;;9.38;;
31978;SDS011;18502;43.574;1.276;2022-12-29T10:27:49;17.02;;;9.60;;
31978;SDS011;18502;43.574;1.276;2022-12-29T10:32:55;17.95;;;10.80;;
31978;SDS011;18502;43.574;1.276;2022-12-29T10:37:58;17.27;;;10.23;;
31978;SDS011;18502;43.574;1.276;2022-12-29T10:40:38;17.93;;;11.13;;
31978;SDS011;18502;43.574;1.276;2022-12-29T10:43:07;17.88;;;9.75;;
31978;SDS011;18502;43.574;1.276;2022-12-29T10:45:49;23.45;;;11.32;;
31978;SDS011;18502;43.574;1.276;2022-12-29T10:48:20;14.73;;;8.57;;
31978;SDS011;18502;43.574;1.276;2022-12-29T10:50:49;17.70;;;8.75;;
31978;SDS011;18502;43.574;1.276;2022-12-29T10:53:22;19.08;;;8.85;;
31978;SDS011;18502;43.574;1.276;2022-12-29T10:55:52;21.42;;;8.68;;
31978;SDS011;18502;43.574;1.276;2022-12-29T10:58:18;18.58;;;9.82;;
31978;SDS011;18502;43.574;1.276;2022-12-29T11:00:49;20.63;;;9.00;;
31978;SDS011;18502;43.574;1.276;2022-12-29T11:06:00;23.00;;;8.55;;
31978;SDS011;18502;43.574;1.276;2022-12-29T11:08:36;15.82;;;7.57;;
31978;SDS011;18502;43.574;1.276;2022-12-29T11:11:05;15.48;;;8.13;;
31978;SDS011;18502;43.574;1.276;2022-12-29T11:13:34;14.90;;;6.32;;
31978;SDS011;18502;43.574;1.276;2022-12-29T11:16:12;17.83;;;7.82;;
31978;SDS011;18502;43.574;1.276;2022-12-29T11:18:39;14.80;;;6.72;;
31978;SDS011;18502;43.574;1.276;2022-12-29T11:21:23;18.23;;;7.20;;
31978;SDS011;18502;43.574;1.276;2022-12-29T11:24:05;13.20;;;7.07;;
31978;SDS011;18502;43.574;1.276;2022-12-29T11:26:54;11.55;;;6.72;;
31978;SDS011;18502;43.574;1.276;2022-12-29T11:29:40;11.45;;;6.18;;
31978;SDS011;18502;43.574;1.276;2022-12-29T11:32:26;16.15;;;6.53;;
31978;SDS011;18502;43.574;1.276;2022-12-29T11:34:56;14.13;;;6.65;;
31978;SDS011;18502;43.574;1.276;2022-12-29T11:42:36;17.15;;;6.85;;
31978;SDS011;18502;43.574;1.276;2022-12-29T11:45:15;13.18;;;6.72;;
31978;SDS011;18502;43.574;1.276;2022-12-29T11:47:43;16.67;;;7.20;;
31978;SDS011;18502;43.574;1.276;2022-12-29T11:50:16;12.98;;;5.35;;
31978;SDS011;18502;43.574;1.276;2022-12-29T11:53:37;14.02;;;6.45;;
31978;SDS011;18502;43.574;1.276;2022-12-29T11:58:33;19.08;;;7.07;;
31978;SDS011;18502;43.574;1.276;2022-12-29T12:03:41;13.82;;;7.43;;
31978;SDS011;18502;43.574;1.276;2022-12-29T12:06:19;12.48;;;6.63;;
31978;SDS011;18502;43.574;1.276;2022-12-29T12:09:00;15.18;;;5.57;;
31978;SDS011;18502;43.574;1.276;2022-12-29T12:11:32;8.30;;;5.45;;
31978;SDS011;18502;43.574;1.276;2022-12-29T12:16:54;12.00;;;6.40;;
31978;SDS011;18502;43.574;1.276;2022-12-29T12:19:31;14.70;;;6.18;;
31978;SDS011;18502;43.574;1.276;2022-12-29T12:25:34;14.02;;;6.40;;
31978;SDS011;18502;43.574;1.276;2022-12-29T12:27:57;10.38;;;6.75;;
31978;SDS011;18502;43.574;1.276;2022-12-29T12:30:50;11.60;;;6.47;;
31978;SDS011;18502;43.574;1.276;2022-12-29T12:44:46;15.07;;;6.75;;
31978;SDS011;18502;43.574;1.276;2022-12-29T13:04:18;9.95;;;3.85;;
31978;SDS011;18502;43.574;1.276;2022-12-29T13:17:52;11.77;;;4.00;;
31978;SDS011;18502;43.574;1.276;2022-12-29T13:20:29;10.63;;;4.47;;
31978;SDS011;18502;43.574;1.276;2022-12-29T13:23:09;13.23;;;5.95;;
31978;SDS011;18502;43.574;1.276;2022-12-29T13:25:50;13.63;;;4.88;;
31978;SDS011;18502;43.574;1.276;2022-12-29T13:28:25;10.48;;;4.25;;
31978;SDS011;18502;43.574;1.276;2022-12-29T13:33:51;9.70;;;4.25;;
31978;SDS011;18502;43.574;1.276;2022-12-29T13:36:48;9.82;;;4.55;;
31978;SDS011;18502;43.574;1.276;2022-12-29T13:39:23;9.80;;;5.22;;
31978;SDS011;18502;43.574;1.276;2022-12-29T13:42:02;11.13;;;5.78;;
31978;SDS011;18502;43.574;1.276;2022-12-29T13:44:46;11.57;;;5.20;;
31978;SDS011;18502;43.574;1.276;2022-12-29T13:50:13;14.13;;;5.85;;
31978;SDS011;18502;43.574;1.276;2022-12-29T14:01:00;14.70;;;5.80;;
31978;SDS011;18502;43.574;1.276;2022-12-29T14:06:24;12.10;;;5.85;;
31978;SDS011;18502;43.574;1.276;2022-12-29T14:09:04;10.63;;;5.20;;
31978;SDS011;18502;43.574;1.276;2022-12-29T14:11:51;11.18;;;6.00;;
31978;SDS011;18502;43.574;1.276;2022-12-29T14:16:43;12.15;;;6.05;;
31978;SDS011;18502;43.574;1.276;2022-12-29T14:21:39;12.60;;;6.10;;
31978;SDS011;18502;43.574;1.276;2022-12-29T14:26:52;12.02;;;6.07;;
31978;SDS011;18502;43.574;1.276;2022-12-29T14:31:50;13.90;;;6.60;;
31978;SDS011;18502;43.574;1.276;2022-12-29T14:44:31;9.45;;;6.03;;
31978;SDS011;18502;43.574;1.276;2022-12-29T14:47:00;15.45;;;6.55;;
31978;SDS011;18502;43.574;1.276;2022-12-29T14:49:31;19.67;;;6.40;;
31978;SDS011;18502;43.574;1.276;2022-12-29T14:52:06;16.75;;;7.05;;
31978;SDS011;18502;43.574;1.276;2022-12-29T14:54:54;12.18;;;5.93;;
31978;SDS011;18502;43.574;1.276;2022-12-29T14:57:39;12.73;;;6.40;;
31978;SDS011;18502;43.574;1.276;2022-12-29T15:00:12;15.25;;;6.40;;
31978;SDS011;18502;43.574;1.276;2022-12-29T15:03:04;20.88;;;10.88;;
31978;SDS011;18502;43.574;1.276;2022-12-29T15:08:02;13.30;;;8.05;;
31978;SDS011;18502;43.574;1.276;2022-12-29T15:10:32;13.88;;;7.18;;
31978;SDS011;18502;43.574;1.276;2022-12-29T15:13:10;18.83;;;8.43;;
31978;SDS011;18502;43.574;1.276;2022-12-29T15:15:41;13.82;;;7.55;;
31978;SDS011;18502;43.574;1.276;2022-12-29T15:18:26;20.02;;;9.27;;
31978;SDS011;18502;43.574;1.276;2022-12-29T15:20:55;20.45;;;11.32;;
31978;SDS011;18502;43.574;1.276;2022-12-29T15:23:24;15.25;;;6.88;;
31978;SDS011;18502;43.574;1.276;2022-12-29T15:25:57;13.63;;;7.18;;
31978;SDS011;18502;43.574;1.276;2022-12-29T15:28:26;13.77;;;7.68;;
31978;SDS011;18502;43.574;1.276;2022-12-29T15:31:03;14.95;;;7.10;;
31978;SDS011;18502;43.574;1.276;2022-12-29T15:33:30;19.52;;;7.85;;
31978;SDS011;18502;43.574;1.276;2022-12-29T15:35:56;13.45;;;7.72;;
31978;SDS011;18502;43.574;1.276;2022-12-29T15:38:28;21.90;;;7.05;;
31978;SDS011;18502;43.574;1.276;2022-12-29T15:40:55;22.88;;;9.07;;
31978;SDS011;18502;43.574;1.276;2022-12-29T15:43:47;19.60;;;7.38;;
31978;SDS011;18502;43.574;1.276;2022-12-29T15:46:20;14.40;;;8.40;;
31978;SDS011;18502;43.574;1.276;2022-12-29T15:48:46;15.07;;;9.23;;
31978;SDS011;18502;43.574;1.276;2022-12-29T15:51:24;14.85;;;8.10;;
31978;SDS011;18502;43.574;1.276;2022-12-29T15:53:55;19.25;;;9.25;;
31978;SDS011;18502;43.574;1.276;2022-12-29T15:56:22;24.15;;;11.98;;
31978;SDS011;18502;43.574;1.276;2022-12-29T15:58:49;23.70;;;11.13;;
31978;SDS011;18502;43.574;1.276;2022-12-29T16:01:34;18.10;;;11.18;;
31978;SDS011;18502;43.574;1.276;2022-12-29T16:04:05;20.60;;;11.18;;
31978;SDS011;18502;43.574;1.276;2022-12-29T16:06:39;23.85;;;11.52;;
31978;SDS011;18502;43.574;1.276;2022-12-29T16:09:18;20.40;;;11.38;;
31978;SDS011;18502;43.574;1.276;2022-12-29T16:11:54;19.85;;;11.63;;
31978;SDS011;18502;43.574;1.276;2022-12-29T16:14:31;23.42;;;11.75;;
31978;SDS011;18502;43.574;1.276;2022-12-29T16:17:03;61.03;;;31.83;;
31978;SDS011;18502;43.574;1.276;2022-12-29T16:19:31;32.92;;;18.42;;
31978;SDS011;18502;43.574;1.276;2022-12-29T16:22:01;26.95;;;12.02;;
31978;SDS011;18502;43.574;1.276;2022-12-29T16:24:36;20.27;;;11.90;;
31978;SDS011;18502;43.574;1.276;2022-12-29T16:29:30;27.85;;;14.95;;
31978;SDS011;18502;43.574;1.276;2022-12-29T16:31:57;42.63;;;20.10;;
31978;SDS011;18502;43.574;1.276;2022-12-29T16:36:59;31.00;;;18.30;;
31978;SDS011;18502;43.574;1.276;2022-12-29T16:39:27;29.52;;;16.80;;
31978;SDS011;18502;43.574;1.276;2022-12-29T16:42:01;29.90;;;20.13;;
31978;SDS011;18502;43.574;1.276;2022-12-29T16:47:48;62.50;;;36.45;;
31978;SDS011;18502;43.574;1.276;2022-12-29T16:50:36;44.28;;;26.90;;
31978;SDS011;18502;43.574;1.276;2022-12-29T16:53:04;53.90;;;31.35;;
31978;SDS011;18502;43.574;1.276;2022-12-29T16:55:32;54.20;;;32.00;;
31978;SDS011;18502;43.574;1.276;2022-12-29T16:57:58;48.55;;;28.10;;
31978;SDS011;18502;43.574;1.276;2022-12-29T17:00:26;22.40;;;11.43;;
31978;SDS011;18502;43.574;1.276;2022-12-29T17:02:55;24.92;;;13.68;;
31978;SDS011;18502;43.574;1.276;2022-12-29T17:05:23;16.08;;;8.95;;
31978;SDS011;18502;43.574;1.276;2022-12-29T17:07:49;23.42;;;13.40;;
31978;SDS011;18502;43.574;1.276;2022-12-29T17:10:20;9.43;;;5.65;;
31978;SDS011;18502;43.574;1.276;2022-12-29T17:13:06;6.03;;;4.43;;
31978;SDS011;18502;43.574;1.276;2022-12-29T17:15:33;6.38;;;3.10;;
31978;SDS011;18502;43.574;1.276;2022-12-29T17:17:59;5.60;;;3.53;;
31978;SDS011;18502;43.574;1.276;2022-12-29T17:20:26;8.35;;;3.97;;
31978;SDS011;18502;43.574;1.276;2022-12-29T17:22:53;6.03;;;3.78;;
31978;SDS011;18502;43.574;1.276;2022-12-29T17:25:23;7.18;;;4.47;;
31978;SDS011;18502;43.574;1.276;2022-12-29T17:28:00;9.55;;;4.80;;
31978;SDS011;18502;43.574;1.276;2022-12-29T17:30:52;9.00;;;4.15;;
31978;SDS011;18502;43.574;1.276;2022-12-29T17:33:19;7.40;;;4.05;;
31978;SDS011;18502;43.574;1.276;2022-12-29T17:35:46;9.05;;;6.20;;
31978;SDS011;18502;43.574;1.276;2022-12-29T17:40:42;7.03;;;3.72;;
31978;SDS011;18502;43.574;1.276;2022-12-29T17:43:07;5.82;;;3.17;;
31978;SDS011;18502;43.574;1.276;2022-12-29T17:45:38;3.35;;;2.35;;
31978;SDS011;18502;43.574;1.276;2022-12-29T17:48:10;6.57;;;4.20;;
31978;SDS011;18502;43.574;1.276;2022-12-29T17:50:41;7.72;;;5.05;;
31978;SDS011;18502;43.574;1.276;2022-12-29T17:53:11;8.48;;;5.57;;
31978;SDS011;18502;43.574;1.276;2022-12-29T17:55:39;36.55;;;13.52;;
31978;SDS011;18502;43.574;1.276;2022-12-29T17:58:24;32.85;;;15.13;;
31978;SDS011;18502;43.574;1.276;2022-12-29T18:00:54;18.27;;;9.85;;